sensor_id;sensor_type;location;lat;lon;timestamp;temperature;humidity
21590;DHT22;10957;50.968;6.828;2023-04-25T00:04:51;6.60;95.20
21590;DHT22;10957;50.968;6.828;2023-04-25T00:09:53;6.50;99.90
21590;DHT22;10957;50.968;6.828;2023-04-25T00:14:55;6.30;99.90
21590;DHT22;10957;50.968;6.828;2023-04-25T00:19:57;6.30;99.90
21590;DHT22;10957;50.968;6.828;2023-04-25T00:24:59;6.00;99.90
21590;DHT22;10957;50.968;6.828;2023-04-25T00:30:01;6.20;99.90
21590;DHT22;10957;50.968;6.828;2023-04-25T00:35:02;6.10;99.90
21590;DHT22;10957;50.968;6.828;2023-04-25T00:40:06;6.10;99.90
21590;DHT22;10957;50.968;6.828;2023-04-25T00:45:09;5.90;99.90
21590;DHT22;10957;50.968;6.828;2023-04-25T00:50:13;6.00;99.90
21590;DHT22;10957;50.968;6.828;2023-04-25T00:55:15;6.10;99.90
21590;DHT22;10957;50.968;6.828;2023-04-25T01:00:17;5.80;99.90
21590;DHT22;10957;50.968;6.828;2023-04-25T01:05:19;5.70;99.90
21590;DHT22;10957;50.968;6.828;2023-04-25T01:10:20;5.60;99.90
21590;DHT22;10957;50.968;6.828;2023-04-25T01:15:21;5.20;99.90
21590;DHT22;10957;50.968;6.828;2023-04-25T01:20:23;5.10;99.90
21590;DHT22;10957;50.968;6.828;2023-04-25T01:25:26;5.00;99.90
21590;DHT22;10957;50.968;6.828;2023-04-25T01:30:27;4.50;99.90
21590;DHT22;10957;50.968;6.828;2023-04-25T01:35:30;4.90;99.90
21590;DHT22;10957;50.968;6.828;2023-04-25T01:40:33;4.80;99.90
21590;DHT22;10957;50.968;6.828;2023-04-25T01:45:35;4.70;99.90
21590;DHT22;10957;50.968;6.828;2023-04-25T01:50:38;5.00;99.90
21590;DHT22;10957;50.968;6.828;2023-04-25T01:55:40;5.20;99.90
21590;DHT22;10957;50.968;6.828;2023-04-25T02:00:46;5.00;99.90
21590;DHT22;10957;50.968;6.828;2023-04-25T02:05:47;4.90;99.90
21590;DHT22;10957;50.968;6.828;2023-04-25T02:10:49;5.50;99.90
21590;DHT22;10957;50.968;6.828;2023-04-25T02:15:54;5.20;99.90
21590;DHT22;10957;50.968;6.828;2023-04-25T02:20:55;5.20;99.90
21590;DHT22;10957;50.968;6.828;2023-04-25T02:25:57;5.50;99.90
21590;DHT22;10957;50.968;6.828;2023-04-25T02:30:58;5.40;99.90
21590;DHT22;10957;50.968;6.828;2023-04-25T02:35:59;5.60;99.90
21590;DHT22;10957;50.968;6.828;2023-04-25T02:41:00;5.60;99.90
21590;DHT22;10957;50.968;6.828;2023-04-25T02:46:02;5.90;99.90
21590;DHT22;10957;50.968;6.828;2023-04-25T02:51:03;5.70;99.90
21590;DHT22;10957;50.968;6.828;2023-04-25T02:56:05;5.70;99.90
21590;DHT22;10957;50.968;6.828;2023-04-25T03:01:06;5.90;99.90
21590;DHT22;10957;50.968;6.828;2023-04-25T03:06:07;5.80;99.90
21590;DHT22;10957;50.968;6.828;2023-04-25T03:11:09;5.90;99.90
21590;DHT22;10957;50.968;6.828;2023-04-25T03:16:10;5.90;99.90
21590;DHT22;10957;50.968;6.828;2023-04-25T03:21:11;5.90;99.90
21590;DHT22;10957;50.968;6.828;2023-04-25T03:26:13;5.70;99.90
21590;DHT22;10957;50.968;6.828;2023-04-25T03:31:14;5.70;99.90
21590;DHT22;10957;50.968;6.828;2023-04-25T03:36:16;5.60;99.90
21590;DHT22;10957;50.968;6.828;2023-04-25T03:41:17;6.00;99.90
21590;DHT22;10957;50.968;6.828;2023-04-25T03:46:31;6.00;99.90
21590;DHT22;10957;50.968;6.828;2023-04-25T03:51:32;6.10;99.90
21590;DHT22;10957;50.968;6.828;2023-04-25T03:56:34;6.10;99.90
21590;DHT22;10957;50.968;6.828;2023-04-25T04:01:43;6.00;99.90
21590;DHT22;10957;50.968;6.828;2023-04-25T04:06:45;6.00;99.90
21590;DHT22;10957;50.968;6.828;2023-04-25T04:11:53;5.80;99.90
21590;DHT22;10957;50.968;6.828;2023-04-25T04:16:54;6.10;99.90
21590;DHT22;10957;50.968;6.828;2023-04-25T04:21:57;5.90;99.90
21590;DHT22;10957;50.968;6.828;2023-04-25T04:26:59;6.00;99.90
21590;DHT22;10957;50.968;6.828;2023-04-25T04:32:18;5.90;99.90
21590;DHT22;10957;50.968;6.828;2023-04-25T04:37:20;6.00;99.90
21590;DHT22;10957;50.968;6.828;2023-04-25T04:42:22;6.10;99.90
21590;DHT22;10957;50.968;6.828;2023-04-25T04:47:46;6.00;99.90
21590;DHT22;10957;50.968;6.828;2023-04-25T04:53:13;6.20;99.90
21590;DHT22;10957;50.968;6.828;2023-04-25T04:58:29;6.20;99.90
21590;DHT22;10957;50.968;6.828;2023-04-25T05:03:54;6.20;99.90
21590;DHT22;10957;50.968;6.828;2023-04-25T05:09:17;6.40;99.90
21590;DHT22;10957;50.968;6.828;2023-04-25T05:14:35;6.40;99.90
21590;DHT22;10957;50.968;6.828;2023-04-25T05:19:46;6.20;99.90
21590;DHT22;10957;50.968;6.828;2023-04-25T05:25:10;6.70;99.90
21590;DHT22;10957;50.968;6.828;2023-04-25T05:30:30;6.60;99.90
21590;DHT22;10957;50.968;6.828;2023-04-25T05:35:39;6.70;99.90
21590;DHT22;10957;50.968;6.828;2023-04-25T05:40:40;7.00;99.90
21590;DHT22;10957;50.968;6.828;2023-04-25T05:46:05;6.60;99.90
21590;DHT22;10957;50.968;6.828;2023-04-25T05:51:19;6.90;99.90
21590;DHT22;10957;50.968;6.828;2023-04-25T05:56:45;6.90;99.90
21590;DHT22;10957;50.968;6.828;2023-04-25T06:01:47;7.20;99.90
21590;DHT22;10957;50.968;6.828;2023-04-25T06:06:48;7.30;99.90
21590;DHT22;10957;50.968;6.828;2023-04-25T06:11:50;7.30;99.90
21590;DHT22;10957;50.968;6.828;2023-04-25T06:16:51;7.40;98.30
21590;DHT22;10957;50.968;6.828;2023-04-25T06:21:52;7.90;50.70
21590;DHT22;10957;50.968;6.828;2023-04-25T06:26:54;7.40;1.00
21590;DHT22;10957;50.968;6.828;2023-04-25T06:31:56;7.60;1.00
21590;DHT22;10957;50.968;6.828;2023-04-25T06:36:58;7.90;1.00
21590;DHT22;10957;50.968;6.828;2023-04-25T06:42:00;8.00;1.00
21590;DHT22;10957;50.968;6.828;2023-04-25T06:47:20;8.00;1.00
21590;DHT22;10957;50.968;6.828;2023-04-25T06:52:23;8.30;1.00
21590;DHT22;10957;50.968;6.828;2023-04-25T06:57:27;8.30;1.00
21590;DHT22;10957;50.968;6.828;2023-04-25T07:02:30;8.90;1.00
21590;DHT22;10957;50.968;6.828;2023-04-25T07:07:32;8.20;1.00
21590;DHT22;10957;50.968;6.828;2023-04-25T07:12:34;8.60;1.00
21590;DHT22;10957;50.968;6.828;2023-04-25T07:17:35;8.50;1.00
21590;DHT22;10957;50.968;6.828;2023-04-25T07:22:36;8.60;1.00
21590;DHT22;10957;50.968;6.828;2023-04-25T07:27:39;8.90;1.00
21590;DHT22;10957;50.968;6.828;2023-04-25T07:32:49;9.20;1.00
21590;DHT22;10957;50.968;6.828;2023-04-25T07:37:51;9.60;1.00
21590;DHT22;10957;50.968;6.828;2023-04-25T07:42:54;9.50;1.00
21590;DHT22;10957;50.968;6.828;2023-04-25T07:48:09;9.80;1.00
21590;DHT22;10957;50.968;6.828;2023-04-25T07:53:13;9.30;1.00
21590;DHT22;10957;50.968;6.828;2023-04-25T07:58:21;9.40;1.00
21590;DHT22;10957;50.968;6.828;2023-04-25T08:03:25;9.40;1.00
21590;DHT22;10957;50.968;6.828;2023-04-25T08:08:27;9.20;1.00
21590;DHT22;10957;50.968;6.828;2023-04-25T08:13:29;9.00;1.00
21590;DHT22;10957;50.968;6.828;2023-04-25T08:18:30;9.70;1.00
21590;DHT22;10957;50.968;6.828;2023-04-25T08:23:32;10.10;1.00
21590;DHT22;10957;50.968;6.828;2023-04-25T08:28:38;9.80;1.00
21590;DHT22;10957;50.968;6.828;2023-04-25T08:33:40;9.80;1.00
21590;DHT22;10957;50.968;6.828;2023-04-25T08:39:13;10.10;1.00
21590;DHT22;10957;50.968;6.828;2023-04-25T08:44:24;10.10;99.90
21590;DHT22;10957;50.968;6.828;2023-04-25T08:49:26;9.90;99.90
21590;DHT22;10957;50.968;6.828;2023-04-25T08:54:28;9.60;99.90
21590;DHT22;10957;50.968;6.828;2023-04-25T08:59:30;9.60;99.90
21590;DHT22;10957;50.968;6.828;2023-04-25T09:04:32;9.70;99.90
21590;DHT22;10957;50.968;6.828;2023-04-25T09:09:34;9.50;99.90
21590;DHT22;10957;50.968;6.828;2023-04-25T09:14:35;9.20;99.90
21590;DHT22;10957;50.968;6.828;2023-04-25T09:19:41;9.50;99.90
21590;DHT22;10957;50.968;6.828;2023-04-25T09:24:51;9.80;99.90
21590;DHT22;10957;50.968;6.828;2023-04-25T09:29:57;10.00;99.90
21590;DHT22;10957;50.968;6.828;2023-04-25T09:35:03;10.20;99.90
21590;DHT22;10957;50.968;6.828;2023-04-25T09:40:06;9.80;99.90
21590;DHT22;10957;50.968;6.828;2023-04-25T09:45:14;9.80;99.90
21590;DHT22;10957;50.968;6.828;2023-04-25T09:50:17;10.40;99.90
21590;DHT22;10957;50.968;6.828;2023-04-25T09:55:25;10.10;99.90
21590;DHT22;10957;50.968;6.828;2023-04-25T10:00:26;9.80;99.90
21590;DHT22;10957;50.968;6.828;2023-04-25T10:05:30;9.20;99.90
21590;DHT22;10957;50.968;6.828;2023-04-25T10:10:33;9.00;99.90
21590;DHT22;10957;50.968;6.828;2023-04-25T10:15:37;9.10;99.90
21590;DHT22;10957;50.968;6.828;2023-04-25T10:20:39;9.00;99.90
21590;DHT22;10957;50.968;6.828;2023-04-25T10:25:41;9.40;99.90
21590;DHT22;10957;50.968;6.828;2023-04-25T10:31:03;9.80;99.90
21590;DHT22;10957;50.968;6.828;2023-04-25T10:36:12;9.90;99.90
21590;DHT22;10957;50.968;6.828;2023-04-25T10:41:14;11.00;99.90
21590;DHT22;10957;50.968;6.828;2023-04-25T10:46:26;10.30;99.90
21590;DHT22;10957;50.968;6.828;2023-04-25T10:51:34;9.60;99.90
21590;DHT22;10957;50.968;6.828;2023-04-25T11:01:38;9.20;99.90
21590;DHT22;10957;50.968;6.828;2023-04-25T11:12:08;9.50;99.90
21590;DHT22;10957;50.968;6.828;2023-04-25T11:17:11;9.70;99.90
21590;DHT22;10957;50.968;6.828;2023-04-25T11:22:12;9.80;99.90
21590;DHT22;10957;50.968;6.828;2023-04-25T11:27:13;10.50;99.90
21590;DHT22;10957;50.968;6.828;2023-04-25T11:32:17;11.10;99.90
21590;DHT22;10957;50.968;6.828;2023-04-25T11:37:18;12.10;99.90
21590;DHT22;10957;50.968;6.828;2023-04-25T11:42:19;11.60;99.90
21590;DHT22;10957;50.968;6.828;2023-04-25T11:47:28;11.20;99.90
21590;DHT22;10957;50.968;6.828;2023-04-25T11:52:41;11.20;99.90
21590;DHT22;10957;50.968;6.828;2023-04-25T11:57:45;11.30;99.90
21590;DHT22;10957;50.968;6.828;2023-04-25T12:02:51;11.50;99.90
21590;DHT22;10957;50.968;6.828;2023-04-25T12:07:52;11.80;99.90
21590;DHT22;10957;50.968;6.828;2023-04-25T12:12:54;12.20;99.90
21590;DHT22;10957;50.968;6.828;2023-04-25T12:17:56;13.20;99.90
21590;DHT22;10957;50.968;6.828;2023-04-25T12:22:57;12.60;99.90
21590;DHT22;10957;50.968;6.828;2023-04-25T12:28:18;12.10;99.90
21590;DHT22;10957;50.968;6.828;2023-04-25T12:33:30;11.10;99.90
21590;DHT22;10957;50.968;6.828;2023-04-25T12:38:36;11.00;99.90
21590;DHT22;10957;50.968;6.828;2023-04-25T12:43:37;10.60;99.90
21590;DHT22;10957;50.968;6.828;2023-04-25T12:48:38;10.90;99.90
21590;DHT22;10957;50.968;6.828;2023-04-25T12:53:41;11.20;99.90
21590;DHT22;10957;50.968;6.828;2023-04-25T12:58:42;10.90;99.90
21590;DHT22;10957;50.968;6.828;2023-04-25T13:03:45;11.10;99.90
21590;DHT22;10957;50.968;6.828;2023-04-25T13:08:46;10.70;99.90
21590;DHT22;10957;50.968;6.828;2023-04-25T13:13:48;10.80;99.90
21590;DHT22;10957;50.968;6.828;2023-04-25T13:18:49;11.10;99.90
21590;DHT22;10957;50.968;6.828;2023-04-25T13:23:50;10.90;99.90
21590;DHT22;10957;50.968;6.828;2023-04-25T13:28:52;11.60;99.90
21590;DHT22;10957;50.968;6.828;2023-04-25T13:33:53;12.80;99.90
21590;DHT22;10957;50.968;6.828;2023-04-25T13:38:54;12.60;99.90
21590;DHT22;10957;50.968;6.828;2023-04-25T13:43:56;11.60;99.90
21590;DHT22;10957;50.968;6.828;2023-04-25T13:48:57;12.30;99.90
21590;DHT22;10957;50.968;6.828;2023-04-25T13:53:58;12.70;99.90
21590;DHT22;10957;50.968;6.828;2023-04-25T13:58:59;13.10;99.90
21590;DHT22;10957;50.968;6.828;2023-04-25T14:04:01;13.50;99.90
21590;DHT22;10957;50.968;6.828;2023-04-25T14:09:04;12.60;99.90
21590;DHT22;10957;50.968;6.828;2023-04-25T14:14:07;11.70;99.90
21590;DHT22;10957;50.968;6.828;2023-04-25T14:19:08;11.80;99.90
21590;DHT22;10957;50.968;6.828;2023-04-25T14:24:10;11.30;99.90
21590;DHT22;10957;50.968;6.828;2023-04-25T14:29:14;12.50;99.90
21590;DHT22;10957;50.968;6.828;2023-04-25T14:34:15;11.80;99.90
21590;DHT22;10957;50.968;6.828;2023-04-25T14:39:16;10.90;99.90
21590;DHT22;10957;50.968;6.828;2023-04-25T14:44:18;10.80;99.90
21590;DHT22;10957;50.968;6.828;2023-04-25T14:49:19;10.90;99.90
21590;DHT22;10957;50.968;6.828;2023-04-25T14:54:21;10.70;99.90
21590;DHT22;10957;50.968;6.828;2023-04-25T14:59:22;11.00;99.90
21590;DHT22;10957;50.968;6.828;2023-04-25T15:04:23;11.00;99.90
21590;DHT22;10957;50.968;6.828;2023-04-25T15:09:25;11.80;99.90
21590;DHT22;10957;50.968;6.828;2023-04-25T15:14:26;12.40;99.90
21590;DHT22;10957;50.968;6.828;2023-04-25T15:19:27;12.40;99.90
21590;DHT22;10957;50.968;6.828;2023-04-25T15:24:29;12.30;99.90
21590;DHT22;10957;50.968;6.828;2023-04-25T15:29:31;12.50;99.90
21590;DHT22;10957;50.968;6.828;2023-04-25T15:34:32;12.50;99.90
21590;DHT22;10957;50.968;6.828;2023-04-25T15:39:33;12.80;99.90
21590;DHT22;10957;50.968;6.828;2023-04-25T15:44:35;12.70;99.90
21590;DHT22;10957;50.968;6.828;2023-04-25T15:49:36;11.90;99.90
21590;DHT22;10957;50.968;6.828;2023-04-25T15:54:38;11.10;99.90
21590;DHT22;10957;50.968;6.828;2023-04-25T15:59:39;10.80;99.90
21590;DHT22;10957;50.968;6.828;2023-04-25T16:04:40;10.80;99.90
21590;DHT22;10957;50.968;6.828;2023-04-25T16:09:42;10.90;99.90
21590;DHT22;10957;50.968;6.828;2023-04-25T16:14:44;10.80;99.90
21590;DHT22;10957;50.968;6.828;2023-04-25T16:19:46;10.90;99.90
21590;DHT22;10957;50.968;6.828;2023-04-25T16:24:47;10.40;99.90
21590;DHT22;10957;50.968;6.828;2023-04-25T16:29:49;10.10;99.90
21590;DHT22;10957;50.968;6.828;2023-04-25T16:34:51;10.10;99.90
21590;DHT22;10957;50.968;6.828;2023-04-25T16:39:52;9.90;99.90
21590;DHT22;10957;50.968;6.828;2023-04-25T16:44:54;10.20;99.90
21590;DHT22;10957;50.968;6.828;2023-04-25T16:49:55;10.60;99.90
21590;DHT22;10957;50.968;6.828;2023-04-25T16:54:57;10.40;99.90
21590;DHT22;10957;50.968;6.828;2023-04-25T16:59:58;10.00;99.90
21590;DHT22;10957;50.968;6.828;2023-04-25T17:04:59;10.10;99.90
21590;DHT22;10957;50.968;6.828;2023-04-25T17:10:02;10.20;99.90
21590;DHT22;10957;50.968;6.828;2023-04-25T17:15:04;10.00;99.90
21590;DHT22;10957;50.968;6.828;2023-04-25T17:20:07;10.00;99.90
21590;DHT22;10957;50.968;6.828;2023-04-25T17:25:10;9.80;99.90
21590;DHT22;10957;50.968;6.828;2023-04-25T17:30:12;9.80;99.90
21590;DHT22;10957;50.968;6.828;2023-04-25T17:35:13;9.70;99.90
21590;DHT22;10957;50.968;6.828;2023-04-25T17:40:15;9.50;99.90
21590;DHT22;10957;50.968;6.828;2023-04-25T17:45:17;9.30;99.90
21590;DHT22;10957;50.968;6.828;2023-04-25T17:50:18;9.10;99.90
21590;DHT22;10957;50.968;6.828;2023-04-25T17:55:20;9.20;99.90
21590;DHT22;10957;50.968;6.828;2023-04-25T18:00:21;9.00;99.90
21590;DHT22;10957;50.968;6.828;2023-04-25T18:05:23;8.90;99.90
21590;DHT22;10957;50.968;6.828;2023-04-25T18:10:25;8.70;99.90
21590;DHT22;10957;50.968;6.828;2023-04-25T18:15:26;8.80;99.90
21590;DHT22;10957;50.968;6.828;2023-04-25T18:20:28;8.70;99.90
21590;DHT22;10957;50.968;6.828;2023-04-25T18:25:30;8.80;99.90
21590;DHT22;10957;50.968;6.828;2023-04-25T18:30:31;8.40;99.90
21590;DHT22;10957;50.968;6.828;2023-04-25T18:35:32;8.30;99.90
21590;DHT22;10957;50.968;6.828;2023-04-25T18:40:33;8.00;99.90
21590;DHT22;10957;50.968;6.828;2023-04-25T18:45:35;8.10;99.90
21590;DHT22;10957;50.968;6.828;2023-04-25T18:50:36;7.80;99.90
21590;DHT22;10957;50.968;6.828;2023-04-25T18:55:38;7.40;99.90
21590;DHT22;10957;50.968;6.828;2023-04-25T19:00:41;7.30;99.90
21590;DHT22;10957;50.968;6.828;2023-04-25T19:05:42;6.90;99.90
21590;DHT22;10957;50.968;6.828;2023-04-25T19:10:44;6.90;99.90
21590;DHT22;10957;50.968;6.828;2023-04-25T19:15:48;6.60;99.90
21590;DHT22;10957;50.968;6.828;2023-04-25T19:20:50;6.50;99.90
21590;DHT22;10957;50.968;6.828;2023-04-25T19:25:52;6.00;99.90
21590;DHT22;10957;50.968;6.828;2023-04-25T19:30:53;6.40;99.90
21590;DHT22;10957;50.968;6.828;2023-04-25T19:35:54;6.40;99.90
21590;DHT22;10957;50.968;6.828;2023-04-25T19:40:55;6.50;99.90
21590;DHT22;10957;50.968;6.828;2023-04-25T19:45:57;6.20;99.90
21590;DHT22;10957;50.968;6.828;2023-04-25T19:50:58;6.20;99.90
21590;DHT22;10957;50.968;6.828;2023-04-25T19:55:59;6.00;99.90
21590;DHT22;10957;50.968;6.828;2023-04-25T20:01:01;6.00;99.90
21590;DHT22;10957;50.968;6.828;2023-04-25T20:06:04;6.10;99.90
21590;DHT22;10957;50.968;6.828;2023-04-25T20:11:05;5.80;99.90
21590;DHT22;10957;50.968;6.828;2023-04-25T20:16:06;5.70;99.90
21590;DHT22;10957;50.968;6.828;2023-04-25T20:21:08;5.60;99.90
21590;DHT22;10957;50.968;6.828;2023-04-25T20:26:09;5.50;99.90
21590;DHT22;10957;50.968;6.828;2023-04-25T20:31:13;5.30;99.90
21590;DHT22;10957;50.968;6.828;2023-04-25T20:36:14;5.20;99.90
21590;DHT22;10957;50.968;6.828;2023-04-25T20:41:16;5.30;99.90
21590;DHT22;10957;50.968;6.828;2023-04-25T20:46:17;5.30;99.90
21590;DHT22;10957;50.968;6.828;2023-04-25T20:51:19;5.00;99.90
21590;DHT22;10957;50.968;6.828;2023-04-25T20:56:20;4.90;1.00
21590;DHT22;10957;50.968;6.828;2023-04-25T21:01:33;4.80;1.00
21590;DHT22;10957;50.968;6.828;2023-04-25T21:06:36;4.70;1.00
21590;DHT22;10957;50.968;6.828;2023-04-25T21:11:43;4.50;1.00
21590;DHT22;10957;50.968;6.828;2023-04-25T21:16:45;4.40;1.00
21590;DHT22;10957;50.968;6.828;2023-04-25T21:21:47;4.30;1.00
21590;DHT22;10957;50.968;6.828;2023-04-25T21:26:48;4.30;1.00
21590;DHT22;10957;50.968;6.828;2023-04-25T21:31:49;4.30;1.00
21590;DHT22;10957;50.968;6.828;2023-04-25T21:36:51;4.20;1.00
21590;DHT22;10957;50.968;6.828;2023-04-25T21:41:52;3.80;1.00
21590;DHT22;10957;50.968;6.828;2023-04-25T21:46:53;4.20;1.00
21590;DHT22;10957;50.968;6.828;2023-04-25T21:51:55;4.20;1.00
21590;DHT22;10957;50.968;6.828;2023-04-25T21:56:57;4.20;1.00
21590;DHT22;10957;50.968;6.828;2023-04-25T22:01:58;4.20;1.00
21590;DHT22;10957;50.968;6.828;2023-04-25T22:06:59;4.10;1.00
21590;DHT22;10957;50.968;6.828;2023-04-25T22:12:01;4.10;1.00
21590;DHT22;10957;50.968;6.828;2023-04-25T22:17:04;4.20;1.00
21590;DHT22;10957;50.968;6.828;2023-04-25T22:22:05;4.00;1.00
21590;DHT22;10957;50.968;6.828;2023-04-25T22:27:07;4.00;1.00
21590;DHT22;10957;50.968;6.828;2023-04-25T22:32:11;3.70;1.00
21590;DHT22;10957;50.968;6.828;2023-04-25T22:37:14;3.90;1.00
21590;DHT22;10957;50.968;6.828;2023-04-25T22:42:16;3.80;1.00
21590;DHT22;10957;50.968;6.828;2023-04-25T22:47:20;3.80;1.00
21590;DHT22;10957;50.968;6.828;2023-04-25T22:52:22;3.80;1.00
21590;DHT22;10957;50.968;6.828;2023-04-25T22:57:24;3.50;1.00
21590;DHT22;10957;50.968;6.828;2023-04-25T23:02:25;3.90;1.00
21590;DHT22;10957;50.968;6.828;2023-04-25T23:07:27;3.60;1.00
21590;DHT22;10957;50.968;6.828;2023-04-25T23:12:29;3.40;1.00
21590;DHT22;10957;50.968;6.828;2023-04-25T23:17:32;3.40;1.00
21590;DHT22;10957;50.968;6.828;2023-04-25T23:22:33;3.40;1.00
21590;DHT22;10957;50.968;6.828;2023-04-25T23:27:35;3.30;1.00
21590;DHT22;10957;50.968;6.828;2023-04-25T23:32:37;3.30;1.00
21590;DHT22;10957;50.968;6.828;2023-04-25T23:37:39;3.20;1.00
21590;DHT22;10957;50.968;6.828;2023-04-25T23:42:40;3.20;1.00
21590;DHT22;10957;50.968;6.828;2023-04-25T23:47:42;3.10;1.00
21590;DHT22;10957;50.968;6.828;2023-04-25T23:52:43;3.00;1.00
21590;DHT22;10957;50.968;6.828;2023-04-25T23:57:44;3.10;1.00
